Time;durP1;ratioP1;P1;durP2;ratioP2;P2;SDS_P1;SDS_P2;PMS_P1;PMS_P2;Temp;Humidity;BMP_temperature;BMP_pressure;BME280_temperature;BME280_humidity;BME280_pressure;Samples;Min_cycle;Max_cycle;Signal;HPM_P1;HPM_P2
2023/09/21 00:00:20;;;;;;;3.72;2.35;;;;;;;;;;4972356;28;20038;-67
2023/09/21 00:02:55;;;;;;;2.22;1.92;;;;;;;;;;4972083;28;20025;-62
2023/09/21 00:05:24;;;;;;;2.30;1.90;;;;;;;;;;4972295;28;20038;-62
2023/09/21 00:07:50;;;;;;;3.30;2.25;;;;;;;;;;4972415;28;20022;-65
2023/09/21 00:10:17;;;;;;;2.75;2.55;;;;;;;;;;4972335;28;20547;-64
2023/09/21 00:12:43;;;;;;;2.33;2.13;;;;;;;;;;5039222;28;20033;-68
2023/09/21 00:15:09;;;;;;;2.95;2.30;;;;;;;;;;4971885;28;20118;-70
2023/09/21 00:17:35;;;;;;;2.85;2.40;;;;;;;;;;4972117;28;20031;-70
2023/09/21 00:20:01;;;;;;;2.90;2.25;;;;;;;;;;4972010;28;20079;-68
2023/09/21 00:22:27;;;;;;;2.40;2.10;;;;;;;;;;4971792;28;20019;-66
2023/09/21 00:24:52;;;;;;;3.13;2.33;;;;;;;;;;4972252;28;20046;-67
2023/09/21 00:27:18;;;;;;;3.67;2.20;;;;;;;;;;4972141;28;20027;-67
2023/09/21 00:29:45;;;;;;;2.72;2.03;;;;;;;;;;4972044;28;20403;-69
2023/09/21 00:32:11;;;;;;;2.72;1.90;;;;;;;;;;4972095;28;20058;-69
2023/09/21 00:34:36;;;;;;;2.42;1.90;;;;;;;;;;4971645;28;20455;-69
2023/09/21 00:37:03;;;;;;;3.75;1.98;;;;;;;;;;5022423;28;20023;-69
2023/09/21 00:39:31;;;;;;;2.55;2.08;;;;;;;;;;4972189;28;20035;-66
2023/09/21 00:41:57;;;;;;;3.30;2.30;;;;;;;;;;4971874;28;20186;-66
2023/09/21 00:44:22;;;;;;;2.08;1.98;;;;;;;;;;5038569;28;20058;-67
2023/09/21 00:46:48;;;;;;;2.10;1.90;;;;;;;;;;5021895;28;20023;-67
2023/09/21 00:49:17;;;;;;;2.10;2.00;;;;;;;;;;5038264;28;20027;-67
2023/09/21 00:51:43;;;;;;;2.03;1.88;;;;;;;;;;5038250;28;20051;-63
2023/09/21 00:54:12;;;;;;;2.92;1.83;;;;;;;;;;4971812;28;20440;-63
2023/09/21 00:56:38;;;;;;;3.85;1.95;;;;;;;;;;4972218;28;20041;-63
2023/09/21 00:59:05;;;;;;;3.28;2.00;;;;;;;;;;5038999;28;20069;-67
2023/09/21 01:01:31;;;;;;;3.53;2.10;;;;;;;;;;4971641;28;20035;-67
2023/09/21 01:04:06;;;;;;;2.25;2.05;;;;;;;;;;4973485;28;20031;-67
2023/09/21 01:06:32;;;;;;;2.08;1.88;;;;;;;;;;5041943;28;20062;-67
2023/09/21 01:08:57;;;;;;;2.30;1.90;;;;;;;;;;5041691;28;20069;-67
2023/09/21 01:11:24;;;;;;;2.13;1.90;;;;;;;;;;4974906;28;20022;-67
2023/09/21 01:13:51;;;;;;;2.70;1.80;;;;;;;;;;4974847;28;20492;-67
2023/09/21 01:16:17;;;;;;;2.13;2.03;;;;;;;;;;4974788;28;20046;-67
2023/09/21 01:18:43;;;;;;;2.25;2.05;;;;;;;;;;5042017;28;20061;-67
2023/09/21 01:21:13;;;;;;;2.13;1.92;;;;;;;;;;5042048;28;20027;-68
2023/09/21 01:23:49;;;;;;;2.55;2.05;;;;;;;;;;5041366;28;20037;-67
2023/09/21 01:26:16;;;;;;;2.15;1.95;;;;;;;;;;4974449;28;20536;-68
2023/09/21 01:28:42;;;;;;;1.98;1.88;;;;;;;;;;4974518;28;20493;-69
2023/09/21 01:31:09;;;;;;;1.98;1.77;;;;;;;;;;5041552;28;20488;-69
2023/09/21 01:33:35;;;;;;;2.83;2.10;;;;;;;;;;4974355;28;20024;-69
2023/09/21 01:36:00;;;;;;;2.22;2.03;;;;;;;;;;4974242;28;20385;-69
2023/09/21 01:38:27;;;;;;;1.92;1.83;;;;;;;;;;5041266;28;20027;-68
2023/09/21 01:40:53;;;;;;;2.08;1.70;;;;;;;;;;5041429;28;20089;-68
2023/09/21 01:43:19;;;;;;;2.33;2.00;;;;;;;;;;4974599;28;20383;-68
2023/09/21 01:45:51;;;;;;;2.13;2.00;;;;;;;;;;4974603;28;20030;-68
2023/09/21 01:48:18;;;;;;;3.95;2.10;;;;;;;;;;5041364;28;20118;-67
2023/09/21 01:50:51;;;;;;;2.47;1.85;;;;;;;;;;5040907;28;20031;-62
2023/09/21 01:53:18;;;;;;;2.72;2.05;;;;;;;;;;4973894;28;20387;-62
2023/09/21 01:55:47;;;;;;;2.33;2.03;;;;;;;;;;5040630;28;20480;-61
2023/09/21 01:58:13;;;;;;;3.75;1.55;;;;;;;;;;5040671;28;20405;-61
2023/09/21 02:00:49;;;;;;;4.68;1.77;;;;;;;;;;4973927;28;20031;-62
2023/09/21 02:03:18;;;;;;;1.77;1.67;;;;;;;;;;4974095;28;20432;-61
2023/09/21 02:05:46;;;;;;;2.38;1.88;;;;;;;;;;5041091;28;20023;-60
2023/09/21 02:08:12;;;;;;;1.88;1.77;;;;;;;;;;5023893;28;20026;-60
2023/09/21 02:10:38;;;;;;;4.15;2.50;;;;;;;;;;4974337;28;20520;-60
2023/09/21 02:13:07;;;;;;;14.63;2.88;;;;;;;;;;4973945;28;20027;-60
2023/09/21 02:15:40;;;;;;;7.65;1.92;;;;;;;;;;5039883;28;20089;-60
2023/09/21 02:18:09;;;;;;;3.00;2.05;;;;;;;;;;5040554;28;20552;-61
2023/09/21 02:20:38;;;;;;;2.22;2.00;;;;;;;;;;4974201;28;20027;-61
2023/09/21 02:23:04;;;;;;;1.80;1.70;;;;;;;;;;5040780;28;20026;-61
2023/09/21 02:25:31;;;;;;;3.20;2.40;;;;;;;;;;4973970;28;20026;-65
2023/09/21 02:27:56;;;;;;;2.83;2.30;;;;;;;;;;4973562;28;20358;-65
2023/09/21 02:30:22;;;;;;;2.35;1.70;;;;;;;;;;5040524;28;20129;-65
2023/09/21 02:32:49;;;;;;;1.83;1.73;;;;;;;;;;5040783;28;20034;-66
2023/09/21 02:35:16;;;;;;;4.10;1.75;;;;;;;;;;4973475;28;20031;-66
2023/09/21 02:37:48;;;;;;;1.92;1.70;;;;;;;;;;5023684;28;20031;-66
2023/09/21 02:40:15;;;;;;;2.13;1.92;;;;;;;;;;5040137;28;20072;-63
2023/09/21 02:42:44;;;;;;;1.60;1.42;;;;;;;;;;5040321;28;20011;-63
2023/09/21 02:45:13;;;;;;;2.78;1.80;;;;;;;;;;5040132;28;20117;-64
2023/09/21 02:47:39;;;;;;;1.90;1.80;;;;;;;;;;5040400;28;20414;-63
2023/09/21 02:50:15;;;;;;;2.92;1.95;;;;;;;;;;5040156;28;20122;-59
2023/09/21 02:52:43;;;;;;;2.20;1.85;;;;;;;;;;4973610;28;20031;-60
2023/09/21 02:55:08;;;;;;;2.05;1.95;;;;;;;;;;5039710;28;20030;-60
2023/09/21 02:57:34;;;;;;;1.92;1.83;;;;;;;;;;5040225;28;20027;-60
2023/09/21 03:00:08;;;;;;;2.13;1.83;;;;;;;;;;5039897;28;20023;-63
2023/09/21 03:02:34;;;;;;;2.58;1.80;;;;;;;;;;5039809;28;20092;-67
2023/09/21 03:05:01;;;;;;;3.10;1.88;;;;;;;;;;5039465;28;20035;-60
2023/09/21 03:07:27;;;;;;;1.80;1.70;;;;;;;;;;5039833;28;20045;-60
2023/09/21 03:09:56;;;;;;;1.85;1.75;;;;;;;;;;5039520;28;20038;-60
2023/09/21 03:12:22;;;;;;;1.90;1.77;;;;;;;;;;5039717;28;20389;-65
2023/09/21 03:14:48;;;;;;;2.13;1.90;;;;;;;;;;5038870;28;20067;-65
2023/09/21 03:17:14;;;;;;;1.75;1.65;;;;;;;;;;5039837;28;20058;-60
2023/09/21 03:19:40;;;;;;;1.83;1.70;;;;;;;;;;5039656;28;20365;-61
2023/09/21 03:22:05;;;;;;;2.90;1.48;;;;;;;;;;5023270;28;20023;-66
2023/09/21 03:24:31;;;;;;;2.97;1.73;;;;;;;;;;4973143;28;20356;-67
2023/09/21 03:26:56;;;;;;;1.85;1.67;;;;;;;;;;5038414;28;20034;-65
2023/09/21 03:29:22;;;;;;;1.95;1.85;;;;;;;;;;5039858;28;20097;-62
2023/09/21 03:31:47;;;;;;;1.63;1.52;;;;;;;;;;5039169;28;20438;-60
2023/09/21 03:34:13;;;;;;;1.73;1.63;;;;;;;;;;5039467;28;20031;-60
2023/09/21 03:36:39;;;;;;;1.85;1.65;;;;;;;;;;4972832;28;20019;-66
2023/09/21 03:39:11;;;;;;;1.65;1.55;;;;;;;;;;5038984;28;20441;-66
2023/09/21 03:41:37;;;;;;;4.22;1.40;;;;;;;;;;4972167;28;20062;-62
2023/09/21 03:44:03;;;;;;;2.78;1.63;;;;;;;;;;5038873;28;20069;-68
2023/09/21 03:46:30;;;;;;;1.60;1.50;;;;;;;;;;5039013;28;20031;-68
2023/09/21 03:48:56;;;;;;;2.10;1.90;;;;;;;;;;5022586;28;20034;-66
2023/09/21 03:51:21;;;;;;;2.03;1.67;;;;;;;;;;5022560;28;20062;-67
2023/09/21 03:53:46;;;;;;;1.80;1.70;;;;;;;;;;5038824;28;20582;-68
2023/09/21 03:56:12;;;;;;;1.98;1.88;;;;;;;;;;5039186;28;20114;-65
2023/09/21 03:58:37;;;;;;;2.63;1.92;;;;;;;;;;5039157;28;20038;-67
2023/09/21 04:01:04;;;;;;;4.07;1.67;;;;;;;;;;4972337;28;20026;-62
2023/09/21 04:03:29;;;;;;;2.97;1.60;;;;;;;;;;5038966;28;20023;-62
2023/09/21 04:06:06;;;;;;;1.80;1.70;;;;;;;;;;5038501;28;20050;-62
2023/09/21 04:08:31;;;;;;;2.05;1.88;;;;;;;;;;5039295;28;20081;-62
2023/09/21 04:11:00;;;;;;;2.00;1.83;;;;;;;;;;5036487;28;20074;-63
2023/09/21 04:13:25;;;;;;;2.20;1.80;;;;;;;;;;5022040;28;20480;-63
2023/09/21 04:15:51;;;;;;;2.05;1.95;;;;;;;;;;5051765;28;20084;-62
2023/09/21 04:18:16;;;;;;;2.13;1.60;;;;;;;;;;5053766;28;20344;-62
2023/09/21 04:20:44;;;;;;;1.65;1.55;;;;;;;;;;5051622;28;20028;-62
2023/09/21 04:23:10;;;;;;;2.10;1.70;;;;;;;;;;5051701;28;20061;-62
2023/09/21 04:25:38;;;;;;;3.17;1.70;;;;;;;;;;5051910;28;20419;-63
2023/09/21 04:28:05;;;;;;;2.03;1.83;;;;;;;;;;5052877;28;20120;-63
2023/09/21 04:30:34;;;;;;;1.48;1.38;;;;;;;;;;5051046;28;20018;-69
2023/09/21 04:32:59;;;;;;;7.55;4.45;;;;;;;;;;5052287;28;20032;-56
2023/09/21 04:35:26;;;;;;;3.22;2.65;;;;;;;;;;5051545;28;20112;-61
2023/09/21 04:37:56;;;;;;;4.60;2.20;;;;;;;;;;5052112;28;20029;-61
2023/09/21 04:40:24;;;;;;;4.22;2.20;;;;;;;;;;5055463;28;20423;-61
2023/09/21 04:42:50;;;;;;;1.83;1.73;;;;;;;;;;5055507;28;20454;-61
2023/09/21 04:45:19;;;;;;;2.28;1.92;;;;;;;;;;5055391;28;20104;-61
2023/09/21 04:47:49;;;;;;;10.00;2.60;;;;;;;;;;5055386;28;20029;-59
2023/09/21 04:50:16;;;;;;;2.50;2.00;;;;;;;;;;5055492;28;20032;-60
2023/09/21 04:52:43;;;;;;;4.03;2.30;;;;;;;;;;5055287;28;20029;-57
2023/09/21 04:55:09;;;;;;;2.30;2.10;;;;;;;;;;5055212;28;20478;-69
2023/09/21 04:57:35;;;;;;;2.47;2.28;;;;;;;;;;5054565;28;20029;-60
2023/09/21 05:00:09;;;;;;;6.40;2.28;;;;;;;;;;5054654;28;20036;-64
2023/09/21 05:02:35;;;;;;;4.00;2.10;;;;;;;;;;5055058;28;20036;-64
2023/09/21 05:05:00;;;;;;;1.88;1.77;;;;;;;;;;5054750;28;20025;-64
2023/09/21 05:07:27;;;;;;;6.97;2.17;;;;;;;;;;5055094;28;20122;-65
2023/09/21 05:09:52;;;;;;;3.08;2.00;;;;;;;;;;5054924;28;20033;-65
2023/09/21 05:12:18;;;;;;;2.45;2.25;;;;;;;;;;5056261;28;20044;-65
2023/09/21 05:14:47;;;;;;;2.70;1.80;;;;;;;;;;5054509;28;20426;-65
2023/09/21 05:17:13;;;;;;;2.00;1.90;;;;;;;;;;5056277;28;20036;-55
2023/09/21 05:19:39;;;;;;;2.40;2.20;;;;;;;;;;5056081;28;20033;-61
2023/09/21 05:22:05;;;;;;;2.78;2.20;;;;;;;;;;5055253;28;20032;-61
2023/09/21 05:24:32;;;;;;;2.55;1.90;;;;;;;;;;5057005;28;20017;-61
2023/09/21 05:26:59;;;;;;;2.50;1.90;;;;;;;;;;5056253;28;20040;-61
2023/09/21 05:29:25;;;;;;;1.95;1.52;;;;;;;;;;5056539;28;20036;-66
2023/09/21 05:31:51;;;;;;;3.28;2.10;;;;;;;;;;5056380;28;20039;-66
2023/09/21 05:34:17;;;;;;;2.83;1.75;;;;;;;;;;5056693;28;20082;-67
2023/09/21 05:36:46;;;;;;;2.20;2.08;;;;;;;;;;5054758;28;20120;-67
2023/09/21 05:39:14;;;;;;;2.20;1.65;;;;;;;;;;5049510;28;20025;-67
2023/09/21 05:41:41;;;;;;;4.15;1.80;;;;;;;;;;5036073;28;20029;-67
2023/09/21 05:44:06;;;;;;;2.38;1.90;;;;;;;;;;5035539;28;20030;-67
2023/09/21 05:46:32;;;;;;;3.03;1.83;;;;;;;;;;5035340;28;20044;-67
2023/09/21 05:48:59;;;;;;;1.90;1.63;;;;;;;;;;5033251;28;20049;-67
2023/09/21 05:51:25;;;;;;;4.30;1.80;;;;;;;;;;5032725;28;20038;-67
2023/09/21 05:53:53;;;;;;;2.45;1.60;;;;;;;;;;5033786;28;20037;-66
2023/09/21 05:56:19;;;;;;;1.85;1.75;;;;;;;;;;5033494;28;20033;-67
2023/09/21 05:58:46;;;;;;;4.20;1.70;;;;;;;;;;5032016;28;20045;-67
2023/09/21 06:01:11;;;;;;;3.17;1.88;;;;;;;;;;5033675;28;20026;-66
2023/09/21 06:03:36;;;;;;;1.73;1.60;;;;;;;;;;5016394;28;20383;-66
2023/09/21 06:06:06;;;;;;;2.00;1.88;;;;;;;;;;5016599;28;20060;-66
2023/09/21 06:08:32;;;;;;;1.77;1.65;;;;;;;;;;5034815;28;20037;-66
2023/09/21 06:10:57;;;;;;;2.33;1.95;;;;;;;;;;5034897;28;20033;-66
2023/09/21 06:13:25;;;;;;;1.60;1.50;;;;;;;;;;5034839;28;20037;-66
2023/09/21 06:15:50;;;;;;;1.50;1.40;;;;;;;;;;5086807;28;20131;-66
2023/09/21 06:18:17;;;;;;;2.03;1.58;;;;;;;;;;5095538;28;20052;-66
2023/09/21 06:20:43;;;;;;;2.55;1.48;;;;;;;;;;5077360;28;20024;-66
2023/09/21 06:23:09;;;;;;;1.75;1.63;;;;;;;;;;5077894;28;20025;-66
2023/09/21 06:25:35;;;;;;;3.90;1.60;;;;;;;;;;5095403;28;20365;-66
2023/09/21 06:28:00;;;;;;;2.60;1.50;;;;;;;;;;5095610;28;20035;-66
2023/09/21 06:30:26;;;;;;;1.90;1.70;;;;;;;;;;5095318;28;20027;-66
2023/09/21 06:32:55;;;;;;;2.80;1.85;;;;;;;;;;5095539;28;20032;-66
2023/09/21 06:35:20;;;;;;;3.08;1.75;;;;;;;;;;5095439;28;20072;-66
2023/09/21 06:37:47;;;;;;;4.13;2.00;;;;;;;;;;5095187;28;20028;-66
2023/09/21 06:40:13;;;;;;;2.08;1.80;;;;;;;;;;5095431;28;20527;-66
2023/09/21 06:42:38;;;;;;;3.03;2.10;;;;;;;;;;5095109;28;20047;-66
2023/09/21 06:45:05;;;;;;;2.85;1.90;;;;;;;;;;5076920;28;20123;-66
2023/09/21 06:47:30;;;;;;;2.35;2.05;;;;;;;;;;5095270;28;20024;-66
2023/09/21 06:49:56;;;;;;;2.88;2.00;;;;;;;;;;5094952;28;20038;-66
2023/09/21 06:52:21;;;;;;;3.35;1.63;;;;;;;;;;5094880;28;20123;-66
2023/09/21 06:54:48;;;;;;;2.13;1.90;;;;;;;;;;5076746;28;20111;-66
2023/09/21 06:57:15;;;;;;;1.98;1.58;;;;;;;;;;5095091;28;20032;-66
2023/09/21 06:59:42;;;;;;;2.70;1.75;;;;;;;;;;5093495;28;20017;-66
2023/09/21 07:02:07;;;;;;;4.22;2.00;;;;;;;;;;5094514;28;20110;-66
2023/09/21 07:04:33;;;;;;;2.13;1.70;;;;;;;;;;5077142;28;20074;-66
2023/09/21 07:07:04;;;;;;;2.38;1.90;;;;;;;;;;5094896;28;20115;-66
2023/09/21 07:09:30;;;;;;;2.85;1.83;;;;;;;;;;5076519;28;20028;-66
2023/09/21 07:11:55;;;;;;;2.00;1.70;;;;;;;;;;5094863;28;20144;-66
2023/09/21 07:14:21;;;;;;;1.90;1.75;;;;;;;;;;5094507;28;20039;-66
2023/09/21 07:16:47;;;;;;;4.13;1.60;;;;;;;;;;5059736;28;20032;-66
2023/09/21 07:19:12;;;;;;;2.63;1.88;;;;;;;;;;5094672;28;20024;-66
2023/09/21 07:21:38;;;;;;;1.80;1.65;;;;;;;;;;5094835;28;20020;-66
2023/09/21 07:24:07;;;;;;;4.93;1.90;;;;;;;;;;5094650;28;20039;-66
2023/09/21 07:26:33;;;;;;;2.63;1.70;;;;;;;;;;5094436;28;20385;-66
2023/09/21 07:29:02;;;;;;;3.72;1.52;;;;;;;;;;5093005;28;20024;-66
2023/09/21 07:31:29;;;;;;;2.22;1.60;;;;;;;;;;5094534;28;20069;-66
2023/09/21 07:33:57;;;;;;;2.75;1.50;;;;;;;;;;5094696;28;20032;-66
2023/09/21 07:36:22;;;;;;;1.40;1.30;;;;;;;;;;5094112;28;20061;-66
2023/09/21 07:38:48;;;;;;;2.17;1.52;;;;;;;;;;5094129;28;20028;-66
2023/09/21 07:41:13;;;;;;;2.22;1.60;;;;;;;;;;5076072;28;20028;-66
2023/09/21 07:43:41;;;;;;;3.65;2.22;;;;;;;;;;5075929;28;20028;-66
2023/09/21 07:46:06;;;;;;;2.55;1.70;;;;;;;;;;5094562;28;20032;-66
2023/09/21 07:48:32;;;;;;;1.80;1.70;;;;;;;;;;5094235;28;20417;-66
2023/09/21 07:50:57;;;;;;;3.17;1.65;;;;;;;;;;5093991;28;20020;-66
2023/09/21 07:53:22;;;;;;;2.35;1.70;;;;;;;;;;5093803;28;20069;-66
2023/09/21 07:55:57;;;;;;;3.15;1.70;;;;;;;;;;5094128;28;20080;-66
2023/09/21 07:58:22;;;;;;;1.90;1.70;;;;;;;;;;5094161;28;20024;-66
2023/09/21 08:00:48;;;;;;;17.98;11.88;;;;;;;;;;5094087;28;20035;-66
2023/09/21 08:03:13;;;;;;;4.07;2.50;;;;;;;;;;5093822;28;20488;-66
2023/09/21 08:05:39;;;;;;;2.38;1.10;;;;;;;;;;5093791;28;20075;-66
2023/09/21 08:08:05;;;;;;;10.88;6.07;;;;;;;;;;5075813;28;20427;-66
2023/09/21 08:10:33;;;;;;;3.75;1.38;;;;;;;;;;5093723;28;20012;-66
2023/09/21 08:12:58;;;;;;;1.77;1.45;;;;;;;;;;5094499;28;20072;-66
2023/09/21 08:15:24;;;;;;;1.55;1.40;;;;;;;;;;5097680;28;20075;-66
2023/09/21 08:17:50;;;;;;;2.70;1.40;;;;;;;;;;5097851;28;20466;-66
2023/09/21 08:20:15;;;;;;;2.38;0.93;;;;;;;;;;5097863;28;20085;-66
2023/09/21 08:22:42;;;;;;;2.10;1.02;;;;;;;;;;5098359;28;20052;-66
2023/09/21 08:25:08;;;;;;;1.73;1.02;;;;;;;;;;5097777;28;20028;-66
2023/09/21 08:27:34;;;;;;;2.15;0.80;;;;;;;;;;5097991;28;20039;-66
2023/09/21 08:30:03;;;;;;;1.52;0.90;;;;;;;;;;5097632;28;20036;-66
2023/09/21 08:32:29;;;;;;;2.85;1.42;;;;;;;;;;5097629;28;20126;-66
2023/09/21 08:34:54;;;;;;;0.68;0.68;;;;;;;;;;5097510;28;20505;-66
2023/09/21 08:37:20;;;;;;;1.90;1.30;;;;;;;;;;5098078;28;20027;-66
2023/09/21 08:39:45;;;;;;;1.10;0.98;;;;;;;;;;5097510;28;20481;-66
2023/09/21 08:42:10;;;;;;;1.23;1.10;;;;;;;;;;5097683;28;20026;-66
2023/09/21 08:44:39;;;;;;;1.05;0.90;;;;;;;;;;5097701;28;20370;-66
2023/09/21 08:47:06;;;;;;;2.05;1.10;;;;;;;;;;5079233;28;20401;-66
2023/09/21 08:49:32;;;;;;;1.40;1.08;;;;;;;;;;5097305;28;20035;-66
2023/09/21 08:52:00;;;;;;;1.48;1.17;;;;;;;;;;5097835;28;20032;-66
2023/09/21 08:54:26;;;;;;;2.65;1.10;;;;;;;;;;5097414;28;20027;-66
2023/09/21 08:56:55;;;;;;;1.00;0.80;;;;;;;;;;5097442;28;20020;-66
2023/09/21 08:59:21;;;;;;;2.70;0.95;;;;;;;;;;5097143;28;20028;-66
2023/09/21 09:01:48;;;;;;;0.90;0.90;;;;;;;;;;5097060;28;20122;-66
2023/09/21 09:04:14;;;;;;;2.58;0.98;;;;;;;;;;5097309;28;20039;-66
2023/09/21 09:06:40;;;;;;;4.70;1.08;;;;;;;;;;5097298;28;20093;-66
2023/09/21 09:09:06;;;;;;;1.17;0.98;;;;;;;;;;5096938;28;20465;-66
2023/09/21 09:11:42;;;;;;;3.22;1.20;;;;;;;;;;5096916;28;20089;-66
2023/09/21 09:14:17;;;;;;;1.20;1.05;;;;;;;;;;5095352;28;20040;-66
2023/09/21 09:16:46;;;;;;;1.20;1.10;;;;;;;;;;5097048;28;20055;-66
2023/09/21 09:19:12;;;;;;;1.30;1.20;;;;;;;;;;5096760;28;20470;-66
2023/09/21 09:21:39;;;;;;;3.80;1.10;;;;;;;;;;5096714;28;20082;-66
2023/09/21 09:24:06;;;;;;;1.20;0.80;;;;;;;;;;5096859;28;20038;-66
2023/09/21 09:26:31;;;;;;;4.95;1.10;;;;;;;;;;5096861;28;20458;-66
2023/09/21 09:29:09;;;;;;;1.27;1.15;;;;;;;;;;5096550;28;20028;-66
2023/09/21 09:31:35;;;;;;;1.30;1.20;;;;;;;;;;5095288;28;20032;-66
2023/09/21 09:34:01;;;;;;;1.02;1.00;;;;;;;;;;5096679;28;20078;-66
2023/09/21 09:36:27;;;;;;;1.27;1.17;;;;;;;;;;5095168;28;20028;-66
2023/09/21 09:38:52;;;;;;;2.92;1.55;;;;;;;;;;5096923;28;20092;-66
2023/09/21 09:41:18;;;;;;;2.17;1.10;;;;;;;;;;5078149;28;20509;-66
2023/09/21 09:43:50;;;;;;;1.67;1.20;;;;;;;;;;5096282;28;20055;-66
2023/09/21 09:46:17;;;;;;;1.50;1.30;;;;;;;;;;5096242;28;20060;-66
2023/09/21 09:48:43;;;;;;;1.00;0.88;;;;;;;;;;5096174;28;20047;-66
2023/09/21 09:51:12;;;;;;;2.45;0.95;;;;;;;;;;5096136;28;20469;-66
2023/09/21 09:53:40;;;;;;;1.63;1.10;;;;;;;;;;5096566;28;20024;-66
2023/09/21 09:56:10;;;;;;;1.35;1.10;;;;;;;;;;5096605;28;20028;-66
2023/09/21 09:58:40;;;;;;;2.20;1.08;;;;;;;;;;5096334;28;20363;-66
2023/09/21 10:01:08;;;;;;;1.15;1.08;;;;;;;;;;5096237;28;20074;-66
2023/09/21 10:03:43;;;;;;;1.23;1.13;;;;;;;;;;5095860;28;20039;-66
2023/09/21 10:06:09;;;;;;;2.10;1.20;;;;;;;;;;5096431;28;20082;-66
2023/09/21 10:08:39;;;;;;;1.65;1.40;;;;;;;;;;5095792;28;20024;-66
2023/09/21 10:11:06;;;;;;;1.83;1.00;;;;;;;;;;5095767;28;20110;-66
2023/09/21 10:13:34;;;;;;;1.73;1.20;;;;;;;;;;5095907;28;20434;-66
2023/09/21 10:16:02;;;;;;;1.15;1.10;;;;;;;;;;5095452;28;20037;-66
2023/09/21 10:18:28;;;;;;;1.98;1.30;;;;;;;;;;5095614;28;20038;-66
2023/09/21 10:20:56;;;;;;;1.88;1.17;;;;;;;;;;5095499;28;20382;-66
2023/09/21 10:23:21;;;;;;;2.35;1.10;;;;;;;;;;5095527;28;20031;-66
2023/09/21 10:25:48;;;;;;;1.85;1.00;;;;;;;;;;5095436;28;20386;-66
2023/09/21 10:28:28;;;;;;;2.13;1.15;;;;;;;;;;5095402;28;20097;-66
2023/09/21 10:30:54;;;;;;;;;;;;;;;;;;5096369;28;20473;-66
2023/09/21 10:33:19;;;;;;;1.93;1.40;;;;;;;;;;5095511;28;19908;-66
2023/09/21 10:35:45;;;;;;;1.42;1.00;;;;;;;;;;5094734;28;20273;-66
2023/09/21 10:38:14;;;;;;;2.05;1.20;;;;;;;;;;5095520;28;20404;-66
2023/09/21 10:40:40;;;;;;;2.63;1.20;;;;;;;;;;5077383;28;20032;-66
2023/09/21 10:43:26;;;;;;;4.43;1.10;;;;;;;;;;5076922;28;20077;-66
2023/09/21 10:45:55;;;;;;;1.20;1.10;;;;;;;;;;5095612;28;20027;-66
2023/09/21 10:48:21;;;;;;;1.15;1.00;;;;;;;;;;5095273;28;20040;-66
2023/09/21 10:50:50;;;;;;;1.15;1.05;;;;;;;;;;5094963;28;20036;-66
2023/09/21 10:53:17;;;;;;;0.80;0.80;;;;;;;;;;5094814;28;20028;-66
2023/09/21 10:55:43;;;;;;;0.98;0.93;;;;;;;;;;5095104;28;20032;-66
2023/09/21 10:58:10;;;;;;;0.80;0.80;;;;;;;;;;5094900;28;20028;-66
2023/09/21 11:00:37;;;;;;;1.05;1.00;;;;;;;;;;5095387;28;20016;-66
2023/09/21 11:03:03;;;;;;;2.47;1.15;;;;;;;;;;5095058;28;20073;-66
2023/09/21 11:05:29;;;;;;;1.67;1.40;;;;;;;;;;5094723;28;20408;-66
2023/09/21 11:07:55;;;;;;;2.45;1.40;;;;;;;;;;5094981;28;20028;-67
2023/09/21 11:10:20;;;;;;;1.60;1.50;;;;;;;;;;5094644;28;20373;-66
2023/09/21 11:12:45;;;;;;;2.53;1.42;;;;;;;;;;5094609;28;20031;-66
2023/09/21 11:15:12;;;;;;;1.15;1.08;;;;;;;;;;5094441;28;20046;-66
2023/09/21 11:17:42;;;;;;;3.35;1.25;;;;;;;;;;5076477;28;20034;-66
2023/09/21 11:20:08;;;;;;;1.42;1.25;;;;;;;;;;5094488;28;20205;-66
2023/09/21 11:22:34;;;;;;;3.00;1.00;;;;;;;;;;5094713;28;20103;-66
2023/09/21 11:24:59;;;;;;;1.58;1.08;;;;;;;;;;5094651;28;20043;-66
2023/09/21 11:27:28;;;;;;;1.08;1.00;;;;;;;;;;5094583;28;20073;-66
2023/09/21 11:29:54;;;;;;;1.33;1.23;;;;;;;;;;5076126;28;20028;-66
2023/09/21 11:32:22;;;;;;;1.77;1.25;;;;;;;;;;5094786;28;20028;-67
2023/09/21 11:34:47;;;;;;;2.47;1.48;;;;;;;;;;5094167;28;20054;-66
2023/09/21 11:37:13;;;;;;;0.82;0.80;;;;;;;;;;5094185;28;20032;-66
2023/09/21 11:39:44;;;;;;;1.77;1.23;;;;;;;;;;5094603;28;20036;-66
2023/09/21 11:42:10;;;;;;;0.90;0.90;;;;;;;;;;5094621;28;20028;-66
2023/09/21 11:44:39;;;;;;;1.83;1.33;;;;;;;;;;5094354;28;20488;-66
2023/09/21 11:47:09;;;;;;;1.70;1.50;;;;;;;;;;5094298;28;20032;-66
2023/09/21 11:49:38;;;;;;;1.35;1.30;;;;;;;;;;5093516;28;20525;-66
2023/09/21 11:52:04;;;;;;;1.13;1.02;;;;;;;;;;5093960;28;20537;-66
2023/09/21 11:54:30;;;;;;;1.10;1.00;;;;;;;;;;5093838;28;20177;-66
2023/09/21 11:56:56;;;;;;;1.83;1.60;;;;;;;;;;5094175;28;20028;-66
2023/09/21 11:59:21;;;;;;;1.65;1.10;;;;;;;;;;5075775;28;20362;-66
2023/09/21 12:01:48;;;;;;;3.28;1.38;;;;;;;;;;5076131;28;20035;-66
2023/09/21 12:04:16;;;;;;;3.42;1.60;;;;;;;;;;5094064;28;20126;-66
2023/09/21 12:06:42;;;;;;;1.42;1.30;;;;;;;;;;5076065;28;20078;-66
2023/09/21 12:09:08;;;;;;;2.65;1.63;;;;;;;;;;5092526;28;20047;-66
2023/09/21 12:11:34;;;;;;;1.13;1.13;;;;;;;;;;5094012;28;20034;-66
2023/09/21 12:14:04;;;;;;;1.90;1.55;;;;;;;;;;5093676;28;20063;-66
2023/09/21 12:16:30;;;;;;;2.28;1.48;;;;;;;;;;5093678;28;20028;-66
2023/09/21 12:18:58;;;;;;;1.50;1.40;;;;;;;;;;5076228;28;20035;-66
2023/09/21 12:21:25;;;;;;;2.90;1.67;;;;;;;;;;5075557;28;20028;-66
2023/09/21 12:23:51;;;;;;;2.28;1.92;;;;;;;;;;5093884;28;20032;-66
2023/09/21 12:26:17;;;;;;;3.60;1.63;;;;;;;;;;5093642;28;20028;-66
2023/09/21 12:28:43;;;;;;;4.18;2.28;;;;;;;;;;5093839;28;20047;-66
2023/09/21 12:31:08;;;;;;;2.25;2.00;;;;;;;;;;5075468;28;20084;-66
2023/09/21 12:33:35;;;;;;;4.03;2.00;;;;;;;;;;5075752;28;20040;-66
2023/09/21 12:36:01;;;;;;;1.58;1.48;;;;;;;;;;5093517;28;20040;-66
2023/09/21 12:38:27;;;;;;;5.03;1.90;;;;;;;;;;5093351;28;20024;-66
2023/09/21 12:40:54;;;;;;;4.00;2.10;;;;;;;;;;5092216;28;20023;-66
2023/09/21 12:43:20;;;;;;;1.75;1.65;;;;;;;;;;5093719;28;20107;-66
2023/09/21 12:45:45;;;;;;;2.13;1.92;;;;;;;;;;5093448;28;20103;-66
2023/09/21 12:48:13;;;;;;;2.20;1.88;;;;;;;;;;5093686;28;20036;-67
2023/09/21 12:50:38;;;;;;;2.00;1.90;;;;;;;;;;5075282;28;20457;-67
2023/09/21 12:53:05;;;;;;;2.10;1.58;;;;;;;;;;5093665;28;20115;-67
2023/09/21 12:55:31;;;;;;;3.35;1.70;;;;;;;;;;5093814;28;20028;-67
2023/09/21 12:57:58;;;;;;;1.75;1.65;;;;;;;;;;5093893;28;20026;-67
2023/09/21 13:00:24;;;;;;;3.00;2.35;;;;;;;;;;5096027;28;20024;-67
2023/09/21 13:02:49;;;;;;;3.65;1.83;;;;;;;;;;5096719;28;20028;-67
2023/09/21 13:05:15;;;;;;;3.50;1.73;;;;;;;;;;5096722;28;20085;-67
2023/09/21 13:07:40;;;;;;;2.50;1.90;;;;;;;;;;5097027;28;20044;-67
2023/09/21 13:10:07;;;;;;;3.10;1.63;;;;;;;;;;5097263;28;20107;-67
2023/09/21 13:12:35;;;;;;;2.53;1.67;;;;;;;;;;5097052;28;20036;-67
2023/09/21 13:15:01;;;;;;;2.55;1.80;;;;;;;;;;5096844;28;20092;-67
2023/09/21 13:17:27;;;;;;;2.88;1.77;;;;;;;;;;5097117;28;20115;-67
2023/09/21 13:19:54;;;;;;;1.95;1.55;;;;;;;;;;5097183;28;20028;-67
2023/09/21 13:22:20;;;;;;;2.17;1.63;;;;;;;;;;5083635;28;20020;-60
2023/09/21 13:24:45;;;;;;;1.75;1.63;;;;;;;;;;5095985;28;20035;-66
2023/09/21 13:27:11;;;;;;;2.33;1.65;;;;;;;;;;5095992;28;20036;-60
2023/09/21 13:29:36;;;;;;;4.15;2.10;;;;;;;;;;5095936;28;20108;-60
2023/09/21 13:32:02;;;;;;;4.00;1.70;;;;;;;;;;5080990;28;20028;-60
2023/09/21 13:34:28;;;;;;;1.40;1.30;;;;;;;;;;5096976;28;20077;-60
2023/09/21 13:36:54;;;;;;;1.85;1.60;;;;;;;;;;5078433;28;20077;-60
2023/09/21 13:39:19;;;;;;;1.55;1.45;;;;;;;;;;5096960;28;20016;-60
2023/09/21 13:41:54;;;;;;;2.70;1.70;;;;;;;;;;5096906;28;20028;-60
2023/09/21 13:44:20;;;;;;;3.45;1.80;;;;;;;;;;5078194;28;20049;-61
2023/09/21 13:46:45;;;;;;;2.85;1.73;;;;;;;;;;5096552;28;20128;-60
2023/09/21 13:49:11;;;;;;;5.30;1.90;;;;;;;;;;5096210;28;20518;-60
2023/09/21 13:51:37;;;;;;;2.60;1.75;;;;;;;;;;5095799;28;20434;-60
2023/09/21 13:54:05;;;;;;;3.33;1.90;;;;;;;;;;5096377;28;20024;-60
2023/09/21 13:56:33;;;;;;;4.65;3.72;;;;;;;;;;5094159;28;20235;-60
2023/09/21 13:58:58;;;;;;;4.15;2.22;;;;;;;;;;5094352;28;20036;-60
2023/09/21 14:01:26;;;;;;;2.35;2.15;;;;;;;;;;5095628;28;20024;-60
2023/09/21 14:03:52;;;;;;;1.67;1.38;;;;;;;;;;5095714;28;20115;-60
2023/09/21 14:06:20;;;;;;;1.73;1.63;;;;;;;;;;5094128;28;20111;-60
2023/09/21 14:08:45;;;;;;;2.35;1.10;;;;;;;;;;5074817;28;20047;-60
2023/09/21 14:11:11;;;;;;;1.75;1.38;;;;;;;;;;5074638;28;20035;-60
2023/09/21 14:13:37;;;;;;;2.60;1.55;;;;;;;;;;5094880;28;20024;-60
2023/09/21 14:16:03;;;;;;;1.60;1.42;;;;;;;;;;5094857;28;20052;-60
2023/09/21 14:18:28;;;;;;;1.60;1.50;;;;;;;;;;5094953;28;20393;-60
2023/09/21 14:20:54;;;;;;;2.05;1.30;;;;;;;;;;5095705;28;20024;-60
2023/09/21 14:23:19;;;;;;;3.55;1.60;;;;;;;;;;5095295;28;20028;-60
2023/09/21 14:25:45;;;;;;;2.00;1.65;;;;;;;;;;5095335;28;20023;-60
2023/09/21 14:28:11;;;;;;;6.53;1.35;;;;;;;;;;5095218;28;20359;-60
2023/09/21 14:30:37;;;;;;;1.70;1.60;;;;;;;;;;5095636;28;20084;-60
2023/09/21 14:33:03;;;;;;;4.18;1.27;;;;;;;;;;5096310;28;20028;-60
2023/09/21 14:35:29;;;;;;;1.38;1.13;;;;;;;;;;5095294;28;20040;-60
2023/09/21 14:37:54;;;;;;;2.38;1.60;;;;;;;;;;5094909;28;20036;-60
2023/09/21 14:40:20;;;;;;;1.77;1.42;;;;;;;;;;5077430;28;20023;-60